Time;durP1;ratioP1;P1;durP2;ratioP2;P2;SDS_P1;SDS_P2;PMS_P1;PMS_P2;Temp;Humidity;BMP_temperature;BMP_pressure;BME280_temperature;BME280_humidity;BME280_pressure;Samples;Min_cycle;Max_cycle;Signal;HPM_P1;HPM_P2
2023/02/03 00:01:49;;;;;;;1999.90;999.90;;;7.30;99.90;;;;;;5107414;28;20453;-69
2023/02/03 00:04:16;;;;;;;1999.90;999.90;;;7.30;99.90;;;;;;5107567;28;20848;-71
2023/02/03 00:06:43;;;;;;;1999.90;999.90;;;7.30;99.90;;;;;;5106622;28;20473;-70
2023/02/03 00:09:10;;;;;;;1999.90;999.90;;;7.30;99.90;;;;;;5107718;28;20893;-71
2023/02/03 00:11:37;;;;;;;1999.90;999.90;;;7.30;99.90;;;;;;5107403;28;21132;-71
2023/02/03 00:14:06;;;;;;;1999.90;999.90;;;7.20;99.90;;;;;;5108107;28;20484;-69
2023/02/03 00:16:33;;;;;;;1999.90;999.90;;;7.20;99.90;;;;;;5107655;28;20886;-72
2023/02/03 00:19:01;;;;;;;1999.90;999.90;;;7.20;99.90;;;;;;5106601;28;20452;-70
2023/02/03 00:21:28;;;;;;;1999.90;999.90;;;7.20;99.90;;;;;;5109220;28;20453;-70
2023/02/03 00:23:55;;;;;;;1999.90;999.90;;;7.30;99.90;;;;;;5108792;28;20457;-71
2023/02/03 00:26:22;;;;;;;1999.90;999.90;;;7.30;99.90;;;;;;5109659;28;20461;-71
2023/02/03 00:28:49;;;;;;;1999.90;999.90;;;7.30;99.90;;;;;;5110299;28;20442;-70
2023/02/03 00:31:16;;;;;;;1999.90;999.90;;;7.30;99.90;;;;;;5109705;28;20456;-71
2023/02/03 00:33:43;;;;;;;1999.90;999.90;;;7.30;99.90;;;;;;5105654;28;21302;-71
2023/02/03 00:36:12;;;;;;;1999.90;999.90;;;7.30;99.90;;;;;;5108905;28;20691;-69
2023/02/03 00:38:39;;;;;;;1999.90;999.90;;;7.30;99.90;;;;;;5109480;28;20453;-71
2023/02/03 00:41:06;;;;;;;1999.90;999.90;;;7.40;99.90;;;;;;5108782;28;20450;-69
2023/02/03 00:43:33;;;;;;;1999.90;999.90;;;7.40;99.90;;;;;;5109099;28;20445;-70
2023/02/03 00:46:00;;;;;;;1999.90;999.90;;;7.40;99.90;;;;;;5108346;28;21008;-69
2023/02/03 00:48:26;;;;;;;1999.90;999.90;;;7.30;99.90;;;;;;5107439;28;20449;-71
2023/02/03 00:50:53;;;;;;;1999.90;999.90;;;7.40;99.90;;;;;;5109385;28;20453;-71
2023/02/03 00:53:21;;;;;;;1999.90;999.90;;;7.30;99.90;;;;;;5108814;28;21032;-69
2023/02/03 00:55:48;;;;;;;1999.90;999.90;;;7.30;99.90;;;;;;5109027;28;20461;-70
2023/02/03 00:58:15;;;;;;;1999.90;999.90;;;7.40;99.90;;;;;;5109183;28;20449;-68
2023/02/03 01:00:42;;;;;;;1999.90;999.90;;;7.40;99.90;;;;;;5108905;28;20841;-70
2023/02/03 01:03:09;;;;;;;1999.90;999.90;;;7.40;99.90;;;;;;5108420;28;20498;-70
2023/02/03 01:05:36;;;;;;;1999.90;999.90;;;7.40;99.90;;;;;;5108772;28;20809;-71
2023/02/03 01:08:03;;;;;;;1999.90;999.90;;;7.40;99.90;;;;;;5109776;28;20460;-70
2023/02/03 01:10:31;;;;;;;1999.90;999.90;;;7.40;99.90;;;;;;5108157;28;20453;-70
2023/02/03 01:12:58;;;;;;;1999.90;999.90;;;7.40;99.90;;;;;;5108671;28;20456;-72
2023/02/03 01:15:25;;;;;;;1999.90;999.90;;;7.40;99.90;;;;;;5108964;28;20986;-69
2023/02/03 01:17:52;;;;;;;1999.90;999.90;;;7.30;99.90;;;;;;5109241;28;20491;-69
2023/02/03 01:20:20;;;;;;;1999.90;999.90;;;7.30;99.90;;;;;;5108275;28;20536;-68
2023/02/03 01:22:47;;;;;;;1999.90;999.90;;;7.30;99.90;;;;;;5108251;28;20528;-68
2023/02/03 01:25:14;;;;;;;1999.90;999.90;;;7.30;99.90;;;;;;5108929;28;20465;-68
2023/02/03 01:27:42;;;;;;;1999.90;999.90;;;7.30;99.90;;;;;;5108416;28;20441;-68
2023/02/03 01:30:10;;;;;;;1999.90;999.90;;;7.30;99.90;;;;;;5109083;28;20442;-69
2023/02/03 01:32:36;;;;;;;1999.90;999.90;;;7.30;99.90;;;;;;5106899;28;20943;-70
2023/02/03 01:35:03;;;;;;;1999.90;999.90;;;7.30;99.90;;;;;;5107545;28;20477;-70
2023/02/03 01:37:30;;;;;;;1999.90;999.90;;;7.20;99.90;;;;;;5107809;28;20443;-68
2023/02/03 01:39:57;;;;;;;1999.90;999.90;;;7.20;99.90;;;;;;5108995;28;20472;-68
2023/02/03 01:42:24;;;;;;;1999.90;999.90;;;7.20;99.90;;;;;;5108994;28;21021;-67
2023/02/03 01:44:53;;;;;;;1999.90;999.90;;;7.20;99.90;;;;;;5109419;28;20438;-69
2023/02/03 01:47:29;;;;;;;1999.90;999.90;;;7.20;99.90;;;;;;5101041;28;20502;-68
2023/02/03 01:50:01;;;;;;;1999.90;999.90;;;7.20;99.90;;;;;;5107988;28;20453;-69
2023/02/03 01:52:28;;;;;;;1999.90;999.90;;;7.20;99.90;;;;;;5102319;28;20445;-69
2023/02/03 01:54:58;;;;;;;1999.90;999.90;;;7.20;99.90;;;;;;5107689;28;20473;-69
2023/02/03 01:57:30;;;;;;;1999.90;999.90;;;7.10;99.90;;;;;;5107560;28;20446;-70
2023/02/03 02:00:00;;;;;;;1999.90;999.90;;;7.10;99.90;;;;;;5108416;28;20441;-68
2023/02/03 02:02:27;;;;;;;1999.90;999.90;;;7.10;99.90;;;;;;5107726;28;20445;-68
2023/02/03 02:04:59;;;;;;;1999.90;999.90;;;7.20;99.90;;;;;;5108148;28;20465;-69
2023/02/03 02:07:27;;;;;;;1999.90;999.90;;;7.10;99.90;;;;;;5107433;28;20958;-69
2023/02/03 02:09:55;;;;;;;1999.90;999.90;;;7.10;99.90;;;;;;5107829;28;20445;-69
2023/02/03 02:12:22;;;;;;;1999.90;999.90;;;7.10;99.90;;;;;;5106903;28;20456;-67
2023/02/03 02:14:49;;;;;;;1999.90;999.90;;;7.10;99.90;;;;;;5106869;28;20477;-69
2023/02/03 02:17:33;;;;;;;1999.90;999.90;;;7.10;99.90;;;;;;5108111;28;20450;-69
2023/02/03 02:20:32;;;;;;;1999.90;999.90;;;7.10;99.90;;;;;;5107654;28;20975;-69
2023/02/03 02:23:37;;;;;;;1999.90;999.90;;;7.10;99.90;;;;;;5108103;28;20449;-70
2023/02/03 02:26:38;;;;;;;1999.90;999.90;;;7.20;99.90;;;;;;5107906;28;20461;-68
2023/02/03 02:29:26;;;;;;;1999.90;999.90;;;7.20;99.90;;;;;;5099740;28;20460;-68
2023/02/03 02:32:05;;;;;;;1999.90;999.90;;;7.20;99.90;;;;;;5104775;28;20472;-69
2023/02/03 02:34:44;;;;;;;1999.90;999.90;;;7.20;99.90;;;;;;5107276;28;20468;-69
2023/02/03 02:37:22;;;;;;;1999.90;999.90;;;7.20;99.90;;;;;;5107780;28;20472;-68
2023/02/03 02:39:57;;;;;;;1999.90;999.90;;;7.20;99.90;;;;;;5106967;28;20449;-68
2023/02/03 02:42:32;;;;;;;1999.90;999.90;;;7.20;99.90;;;;;;5107497;28;20445;-67
2023/02/03 02:45:06;;;;;;;1999.90;999.90;;;7.20;99.90;;;;;;5107664;28;20907;-70
2023/02/03 02:47:35;;;;;;;1999.90;999.90;;;7.30;99.90;;;;;;5108433;28;20445;-68
2023/02/03 02:50:05;;;;;;;1999.90;999.90;;;7.20;99.90;;;;;;5107806;28;20445;-68
2023/02/03 02:52:36;;;;;;;1999.90;999.90;;;7.20;99.90;;;;;;5107371;28;20445;-69
2023/02/03 02:55:08;;;;;;;1999.90;999.90;;;7.30;99.90;;;;;;5107721;28;20488;-69
2023/02/03 02:57:37;;;;;;;1999.90;999.90;;;7.30;99.90;;;;;;5107010;28;20536;-68
2023/02/03 03:00:05;;;;;;;1999.90;999.90;;;7.40;99.90;;;;;;5107434;28;20449;-69
2023/02/03 03:02:35;;;;;;;1999.90;999.90;;;7.40;99.90;;;;;;5108611;28;20460;-67
2023/02/03 03:05:04;;;;;;;1999.90;999.90;;;7.40;99.90;;;;;;5111154;28;20441;-69
2023/02/03 03:07:37;;;;;;;1999.90;999.90;;;7.40;99.90;;;;;;5111483;28;20453;-67
2023/02/03 03:10:09;;;;;;;1999.90;999.90;;;7.50;99.90;;;;;;5106603;28;20441;-68
2023/02/03 03:12:39;;;;;;;1999.90;999.90;;;7.50;99.90;;;;;;5111771;28;20448;-69
2023/02/03 03:15:11;;;;;;;1999.90;999.90;;;7.50;99.90;;;;;;5106292;28;20488;-68
2023/02/03 03:17:43;;;;;;;1999.90;999.90;;;7.50;99.90;;;;;;5111731;28;20982;-69
2023/02/03 03:20:12;;;;;;;1999.90;999.90;;;7.50;99.90;;;;;;5111056;28;20441;-70
2023/02/03 03:22:45;;;;;;;1999.90;999.90;;;7.50;99.90;;;;;;5110402;28;20453;-69
2023/02/03 03:25:16;;;;;;;1999.90;999.90;;;7.50;99.90;;;;;;5111067;28;20470;-69
2023/02/03 03:27:48;;;;;;;1999.90;999.90;;;7.40;99.90;;;;;;5110596;28;20464;-69
2023/02/03 03:30:20;;;;;;;1999.90;999.90;;;7.40;99.90;;;;;;5111197;28;20494;-68
2023/02/03 03:32:49;;;;;;;1999.90;999.90;;;7.40;99.90;;;;;;5108949;28;20452;-68
2023/02/03 03:35:16;;;;;;;1999.90;999.90;;;7.40;99.90;;;;;;5111074;28;20488;-70
2023/02/03 03:37:47;;;;;;;1999.90;999.90;;;7.40;99.90;;;;;;5109326;28;20457;-68
2023/02/03 03:40:20;;;;;;;1999.90;999.90;;;7.40;99.90;;;;;;5111322;28;20834;-70
2023/02/03 03:42:51;;;;;;;1999.90;999.90;;;7.40;99.90;;;;;;5110891;28;20448;-68
2023/02/03 03:45:24;;;;;;;1999.90;999.90;;;7.50;99.90;;;;;;5110321;28;20453;-69
2023/02/03 03:47:57;;;;;;;1999.90;999.90;;;7.40;99.90;;;;;;5110047;28;20806;-71
2023/02/03 03:50:28;;;;;;;1999.90;999.90;;;7.50;99.90;;;;;;5107837;28;20434;-69
2023/02/03 03:52:57;;;;;;;1999.90;999.90;;;7.40;99.90;;;;;;5109490;28;20441;-68
2023/02/03 03:55:27;;;;;;;1999.90;999.90;;;7.40;99.90;;;;;;5109568;28;20473;-70
2023/02/03 03:57:59;;;;;;;1999.90;999.90;;;7.40;99.90;;;;;;5109899;28;20445;-69
2023/02/03 04:00:30;;;;;;;1999.90;999.90;;;7.40;99.90;;;;;;5110152;28;20441;-69
2023/02/03 04:03:04;;;;;;;1999.90;999.90;;;7.40;99.90;;;;;;5109135;28;20449;-69
2023/02/03 04:05:33;;;;;;;1999.90;999.90;;;7.50;99.90;;;;;;5109805;28;20460;-69
2023/02/03 04:08:02;;;;;;;1999.90;999.90;;;7.50;99.90;;;;;;5110264;28;20438;-69
2023/02/03 04:10:33;;;;;;;1999.90;999.90;;;7.50;99.90;;;;;;5108915;28;21386;-69
2023/02/03 04:13:00;;;;;;;1999.90;999.90;;;7.50;99.90;;;;;;5109056;28;20460;-69
2023/02/03 04:15:27;;;;;;;1999.90;999.90;;;7.40;99.90;;;;;;5109584;28;20484;-69
2023/02/03 04:17:55;;;;;;;1999.90;999.90;;;7.40;99.90;;;;;;5110768;28;20819;-68
2023/02/03 04:20:24;;;;;;;1999.90;999.90;;;7.30;99.90;;;;;;5109830;28;20460;-69
2023/02/03 04:22:51;;;;;;;1999.90;999.90;;;7.20;99.90;;;;;;5110420;28;20442;-69
2023/02/03 04:25:17;;;;;;;1999.90;999.90;;;7.10;99.90;;;;;;5110288;28;20457;-69
2023/02/03 04:27:44;;;;;;;1999.90;999.90;;;6.90;99.90;;;;;;5109222;28;20449;-69
2023/02/03 04:30:12;;;;;;;1999.90;999.90;;;6.80;99.90;;;;;;5105718;28;20805;-69
2023/02/03 04:32:39;;;;;;;1999.90;999.90;;;6.80;99.90;;;;;;5109633;28;21091;-69
2023/02/03 04:35:07;;;;;;;1999.90;999.90;;;6.70;99.90;;;;;;5107403;28;20469;-69
2023/02/03 04:37:36;;;;;;;1999.90;999.90;;;6.60;99.90;;;;;;5110288;28;20445;-69
2023/02/03 04:40:04;;;;;;;1999.90;999.90;;;6.60;99.90;;;;;;5109238;28;20441;-71
2023/02/03 04:42:31;;;;;;;1999.90;999.90;;;6.50;99.90;;;;;;5109360;28;20449;-69
2023/02/03 04:44:57;;;;;;;1999.90;999.90;;;6.50;99.90;;;;;;5108712;28;20445;-69
2023/02/03 04:47:24;;;;;;;1999.90;999.90;;;6.40;99.90;;;;;;5109830;28;20441;-69
2023/02/03 04:49:51;;;;;;;1999.90;999.90;;;6.40;99.90;;;;;;5109121;28;20452;-68
2023/02/03 04:52:18;;;;;;;1999.90;999.90;;;6.40;99.90;;;;;;5109987;28;20442;-70
2023/02/03 04:54:46;;;;;;;1999.90;999.90;;;6.30;99.90;;;;;;5107867;28;20469;-69
2023/02/03 04:57:12;;;;;;;1999.90;999.90;;;6.30;99.90;;;;;;5106885;28;20477;-69
2023/02/03 04:59:39;;;;;;;1999.90;999.90;;;6.30;99.90;;;;;;5109805;28;20441;-69
2023/02/03 05:02:07;;;;;;;1999.90;999.90;;;6.20;99.90;;;;;;5109340;28;20449;-69
2023/02/03 05:04:34;;;;;;;1999.90;999.90;;;6.20;99.90;;;;;;5109151;28;20970;-69
2023/02/03 05:07:01;;;;;;;1999.90;999.90;;;6.20;99.90;;;;;;5109260;28;21000;-69
2023/02/03 05:09:29;;;;;;;1999.90;999.90;;;6.20;99.90;;;;;;5109624;28;20438;-69
2023/02/03 05:11:57;;;;;;;1999.90;999.90;;;6.10;99.90;;;;;;5108428;28;20449;-70
2023/02/03 05:14:24;;;;;;;1999.90;999.90;;;6.20;99.90;;;;;;5108885;28;21411;-69
2023/02/03 05:16:50;;;;;;;1999.90;999.90;;;6.20;99.90;;;;;;5108659;28;20970;-70
2023/02/03 05:19:17;;;;;;;1999.90;999.90;;;6.20;99.90;;;;;;5109913;28;20498;-70
2023/02/03 05:21:44;;;;;;;1999.90;999.90;;;6.20;99.90;;;;;;5109478;28;20452;-70
2023/02/03 05:24:11;;;;;;;1999.90;999.90;;;6.20;99.90;;;;;;5108383;28;20442;-70
2023/02/03 05:26:38;;;;;;;1999.90;999.90;;;6.20;99.90;;;;;;5109605;28;20487;-69
2023/02/03 05:29:06;;;;;;;1999.90;999.90;;;6.20;99.90;;;;;;5109927;28;20457;-70
2023/02/03 05:31:33;;;;;;;1999.90;999.90;;;6.20;99.90;;;;;;5109085;28;20437;-68
2023/02/03 05:34:00;;;;;;;1999.90;999.90;;;6.20;99.90;;;;;;5109529;28;20545;-69
2023/02/03 05:36:27;;;;;;;1999.90;999.90;;;6.10;99.90;;;;;;5108974;28;20453;-69
2023/02/03 05:38:53;;;;;;;1999.90;999.90;;;6.20;99.90;;;;;;5109554;28;20464;-71
2023/02/03 05:44:06;;;;;;;1999.90;999.90;;;6.20;99.90;;;;;;5108893;28;20788;-70
2023/02/03 05:46:33;;;;;;;1999.90;999.90;;;6.20;99.90;;;;;;5109078;28;20472;-69
2023/02/03 05:48:59;;;;;;;1999.90;999.90;;;6.30;99.90;;;;;;5108302;28;20437;-68
2023/02/03 05:51:27;;;;;;;1999.90;999.90;;;6.30;99.90;;;;;;5108616;28;20444;-69
2023/02/03 05:53:53;;;;;;;1999.90;999.90;;;6.20;99.90;;;;;;5107950;28;20434;-69
2023/02/03 05:56:20;;;;;;;1999.90;999.90;;;6.20;99.90;;;;;;5108474;28;20488;-69
2023/02/03 05:58:47;;;;;;;1999.90;999.90;;;6.20;99.90;;;;;;5109103;28;20532;-69
2023/02/03 06:01:16;;;;;;;1999.90;999.90;;;6.30;99.90;;;;;;5108636;28;21142;-72
2023/02/03 06:03:42;;;;;;;1999.90;999.90;;;6.20;99.90;;;;;;5108174;28;20545;-70
2023/02/03 06:06:09;;;;;;;1999.90;999.90;;;6.30;99.90;;;;;;5108775;28;20469;-69
2023/02/03 06:08:37;;;;;;;1999.90;999.90;;;6.30;99.90;;;;;;5101853;28;20449;-71
2023/02/03 06:11:04;;;;;;;1999.90;999.90;;;6.30;99.90;;;;;;5106343;28;20464;-69
2023/02/03 06:13:30;;;;;;;1999.90;999.90;;;6.20;99.90;;;;;;5107766;28;20441;-70
2023/02/03 06:15:57;;;;;;;1999.90;999.90;;;6.20;99.90;;;;;;5107491;28;20481;-71
2023/02/03 06:18:25;;;;;;;1999.90;999.90;;;6.30;99.90;;;;;;5107699;28;20449;-68
2023/02/03 06:20:52;;;;;;;1999.90;999.90;;;6.20;99.90;;;;;;5106832;28;20445;-70
2023/02/03 06:23:19;;;;;;;1999.90;999.90;;;6.20;99.90;;;;;;5102404;28;21264;-70
2023/02/03 06:25:47;;;;;;;1999.90;999.90;;;6.20;99.90;;;;;;5105343;28;20472;-70
2023/02/03 06:28:15;;;;;;;1999.90;999.90;;;6.30;99.90;;;;;;5107889;28;20460;-70
2023/02/03 06:30:41;;;;;;;1999.90;999.90;;;6.30;99.90;;;;;;5108211;28;20510;-72
2023/02/03 06:33:08;;;;;;;1999.90;999.90;;;6.30;99.90;;;;;;5107997;28;20456;-69
2023/02/03 06:35:36;;;;;;;1999.90;999.90;;;6.30;99.90;;;;;;5108019;28;20480;-70
2023/02/03 06:38:03;;;;;;;1999.90;999.90;;;6.30;99.90;;;;;;5112864;28;20448;-70
2023/02/03 06:40:30;;;;;;;1999.90;999.90;;;6.30;99.90;;;;;;5112173;28;20518;-69
2023/02/03 06:42:56;;;;;;;1999.90;999.90;;;6.30;99.90;;;;;;5111438;28;20451;-69
2023/02/03 06:45:23;;;;;;;1999.90;999.90;;;6.30;99.90;;;;;;5111389;28;20457;-69
2023/02/03 06:47:50;;;;;;;1999.90;999.90;;;6.30;99.90;;;;;;5111732;28;20445;-69
2023/02/03 06:50:17;;;;;;;1999.90;999.90;;;6.30;99.90;;;;;;5111763;28;20448;-69
2023/02/03 06:52:45;;;;;;;1999.90;999.90;;;6.20;99.90;;;;;;5112048;28;20883;-70
2023/02/03 06:55:12;;;;;;;1999.90;999.90;;;6.20;99.90;;;;;;5112341;28;20481;-70
2023/02/03 06:57:43;;;;;;;1999.90;999.90;;;6.20;99.90;;;;;;5111469;28;20445;-70
2023/02/03 07:00:13;;;;;;;1999.90;999.90;;;6.20;99.90;;;;;;5112017;28;20447;-69
2023/02/03 07:02:40;;;;;;;1999.90;999.90;;;6.20;99.90;;;;;;5110335;28;20458;-70
2023/02/03 07:05:07;;;;;;;1999.90;999.90;;;6.20;99.90;;;;;;5111325;28;20448;-69
2023/02/03 07:07:33;;;;;;;1999.90;999.90;;;6.10;99.90;;;;;;5111752;28;20456;-71
2023/02/03 07:10:01;;;;;;;1999.90;999.90;;;6.10;99.90;;;;;;5111368;28;20445;-69
2023/02/03 07:12:28;;;;;;;1999.90;999.90;;;6.10;99.90;;;;;;5110836;28;20452;-70
2023/02/03 07:14:55;;;;;;;1999.90;999.90;;;6.10;99.90;;;;;;5111665;28;20472;-69
2023/02/03 07:17:22;;;;;;;1999.90;999.90;;;6.10;99.90;;;;;;5111965;28;20445;-70
2023/02/03 07:19:49;;;;;;;1999.90;999.90;;;6.10;99.90;;;;;;5111661;28;20829;-70
2023/02/03 07:22:15;;;;;;;1999.90;999.90;;;6.20;99.90;;;;;;5111400;28;20445;-70
2023/02/03 07:24:42;;;;;;;1999.90;999.90;;;6.20;99.90;;;;;;5111094;28;20445;-70
2023/02/03 07:27:10;;;;;;;1999.90;999.90;;;6.20;99.90;;;;;;5111317;28;20472;-70
2023/02/03 07:29:37;;;;;;;1999.90;999.90;;;6.20;99.90;;;;;;5111729;28;20935;-70
2023/02/03 07:32:04;;;;;;;1999.90;999.90;;;6.20;99.90;;;;;;5111194;28;21001;-71
2023/02/03 07:34:31;;;;;;;1999.90;999.90;;;6.30;99.90;;;;;;5111140;28;20441;-69
2023/02/03 07:36:58;;;;;;;1999.90;999.90;;;6.20;99.90;;;;;;5110669;28;20582;-71
2023/02/03 07:39:26;;;;;;;1999.90;999.90;;;6.20;99.90;;;;;;5110482;28;20451;-70
2023/02/03 07:41:53;;;;;;;1999.90;999.90;;;6.20;99.90;;;;;;5110626;28;20452;-70
2023/02/03 07:44:21;;;;;;;1999.90;999.90;;;6.30;99.90;;;;;;5110387;28;20437;-69
2023/02/03 07:46:48;;;;;;;1999.90;999.90;;;6.30;99.90;;;;;;5110899;28;20531;-70
2023/02/03 07:49:14;;;;;;;1999.90;999.90;;;6.30;99.90;;;;;;5110323;28;20453;-69
2023/02/03 07:51:41;;;;;;;1999.90;999.90;;;6.30;99.90;;;;;;5110679;28;21023;-70
2023/02/03 07:54:08;;;;;;;1999.90;999.90;;;6.20;99.90;;;;;;5111094;28;20457;-69
2023/02/03 07:56:35;;;;;;;1999.90;999.90;;;6.30;99.90;;;;;;5110797;28;20492;-70
2023/02/03 07:59:02;;;;;;;1999.90;999.90;;;6.30;99.90;;;;;;5110808;28;20483;-70
2023/02/03 08:01:31;;;;;;;1999.90;999.90;;;6.30;99.90;;;;;;5111554;28;20456;-69
2023/02/03 08:04:04;;;;;;;1999.90;999.90;;;6.30;99.90;;;;;;5109847;28;20461;-70
2023/02/03 08:06:35;;;;;;;1999.90;999.90;;;6.30;99.90;;;;;;5109801;28;20469;-68
2023/02/03 08:09:02;;;;;;;1999.90;999.90;;;6.30;99.90;;;;;;5108152;28;20452;-69
2023/02/03 08:11:31;;;;;;;1999.90;999.90;;;6.30;99.90;;;;;;5110596;28;20867;-71
2023/02/03 08:14:04;;;;;;;1999.90;999.90;;;6.40;99.90;;;;;;5110818;28;20479;-69
2023/02/03 08:16:32;;;;;;;1999.90;999.90;;;6.40;99.90;;;;;;5111496;28;20477;-69
2023/02/03 08:19:00;;;;;;;1999.90;999.90;;;6.40;99.90;;;;;;5111368;28;20445;-70
2023/02/03 08:21:27;;;;;;;1999.90;999.90;;;6.40;99.90;;;;;;5110311;28;20448;-71
2023/02/03 08:23:58;;;;;;;1999.90;999.90;;;6.50;99.90;;;;;;5109080;28;20458;-70
2023/02/03 08:26:27;;;;;;;1999.90;999.90;;;6.50;99.90;;;;;;5110290;28;20457;-70
2023/02/03 08:28:54;;;;;;;1999.90;999.90;;;6.50;99.90;;;;;;5110356;28;20453;-70
2023/02/03 08:31:21;;;;;;;1999.90;999.90;;;6.50;99.90;;;;;;5109944;28;20437;-70
2023/02/03 08:33:51;;;;;;;1999.90;999.90;;;6.50;99.90;;;;;;5109663;28;20476;-71
2023/02/03 08:36:18;;;;;;;1999.90;999.90;;;6.50;99.90;;;;;;5110437;28;20481;-68
2023/02/03 08:38:45;;;;;;;1999.90;999.90;;;6.60;99.90;;;;;;5109517;28;20449;-69
2023/02/03 08:41:13;;;;;;;1999.90;999.90;;;6.60;99.90;;;;;;5109487;28;20817;-70
2023/02/03 08:43:45;;;;;;;1999.90;999.90;;;6.60;99.90;;;;;;5109532;28;20448;-69
2023/02/03 08:46:13;;;;;;;1999.90;999.90;;;6.60;99.90;;;;;;5109133;28;20464;-70
2023/02/03 08:48:40;;;;;;;1999.90;999.90;;;6.60;99.90;;;;;;5110166;28;20451;-70
2023/02/03 08:51:12;;;;;;;1999.90;999.90;;;6.70;99.90;;;;;;5109898;28;20441;-70
2023/02/03 08:53:47;;;;;;;1999.90;999.90;;;6.70;99.90;;;;;;5107966;28;20437;-69
2023/02/03 08:56:14;;;;;;;1999.90;999.90;;;6.70;99.90;;;;;;5109640;28;20516;-69
2023/02/03 08:58:41;;;;;;;1999.90;999.90;;;6.70;99.90;;;;;;5109327;28;20453;-70
2023/02/03 09:01:09;;;;;;;1999.90;999.90;;;6.80;99.90;;;;;;5109854;28;20442;-69
2023/02/03 09:03:36;;;;;;;1999.90;999.90;;;6.80;99.90;;;;;;5108973;28;20571;-69
2023/02/03 09:06:04;;;;;;;1999.90;999.90;;;6.90;99.90;;;;;;5109472;28;21016;-71
2023/02/03 09:08:32;;;;;;;1999.90;999.90;;;7.00;99.90;;;;;;5109809;28;20464;-70
2023/02/03 09:10:59;;;;;;;1999.90;999.90;;;7.10;99.90;;;;;;5109012;28;20450;-70
2023/02/03 09:13:25;;;;;;;1999.90;999.90;;;7.20;99.90;;;;;;5109093;28;20445;-69
2023/02/03 09:15:52;;;;;;;1999.90;999.90;;;7.30;99.90;;;;;;5109884;28;20500;-70
2023/02/03 09:18:19;;;;;;;1999.90;999.90;;;7.30;99.90;;;;;;5109695;28;20441;-70
2023/02/03 09:20:46;;;;;;;1999.90;999.90;;;7.40;99.90;;;;;;5109456;28;20451;-69
2023/02/03 09:23:12;;;;;;;1999.90;999.90;;;7.50;99.90;;;;;;5107365;28;21378;-69
2023/02/03 09:25:41;;;;;;;1999.90;999.90;;;7.50;99.90;;;;;;5108523;28;20457;-70
2023/02/03 09:28:07;;;;;;;1999.90;999.90;;;7.50;99.90;;;;;;5108091;28;20449;-70
2023/02/03 09:30:34;;;;;;;1999.90;999.90;;;7.60;99.90;;;;;;5109264;28;20457;-70
2023/02/03 09:33:01;;;;;;;1999.90;999.90;;;7.70;99.90;;;;;;5108531;28;20452;-69
2023/02/03 09:35:29;;;;;;;1999.90;999.90;;;7.70;99.90;;;;;;5108668;28;20492;-70
2023/02/03 09:37:55;;;;;;;1999.90;999.90;;;7.70;99.90;;;;;;5108501;28;20453;-71
2023/02/03 09:40:30;;;;;;;1999.90;999.90;;;7.80;99.90;;;;;;5108827;28;20451;-69
2023/02/03 09:43:15;;;;;;;1999.90;999.90;;;7.90;99.90;;;;;;5106980;28;20451;-69
2023/02/03 09:45:41;;;;;;;1999.90;999.90;;;8.00;99.90;;;;;;5108956;28;21116;-69
2023/02/03 09:48:16;;;;;;;1999.90;999.90;;;8.00;99.90;;;;;;5108155;28;20447;-70
2023/02/03 09:50:45;;;;;;;1999.90;999.90;;;8.10;99.90;;;;;;5106470;28;20464;-69
2023/02/03 09:53:25;;;;;;;1999.90;999.90;;;8.00;99.90;;;;;;5107863;28;20859;-69
2023/02/03 09:55:52;;;;;;;1999.90;999.90;;;8.00;99.90;;;;;;5108566;28;20483;-68
2023/02/03 09:58:21;;;;;;;1999.90;999.90;;;8.00;99.90;;;;;;5108501;28;20453;-68
2023/02/03 10:00:51;;;;;;;1999.90;999.90;;;8.10;99.90;;;;;;5109479;28;20540;-69
2023/02/03 10:03:28;;;;;;;1999.90;999.90;;;8.20;99.90;;;;;;5108095;28;20450;-72
2023/02/03 10:06:12;;;;;;;1999.90;999.90;;;8.60;99.90;;;;;;5106523;28;20463;-69
2023/02/03 10:08:56;;;;;;;1999.90;999.90;;;8.70;99.90;;;;;;5098205;28;20484;-69
2023/02/03 10:11:34;;;;;;;1999.90;999.90;;;8.90;99.90;;;;;;5107863;28;20938;-68
2023/02/03 10:14:11;;;;;;;1999.90;999.90;;;8.70;99.90;;;;;;5108624;28;20444;-69
2023/02/03 10:16:58;;;;;;;1999.90;999.90;;;8.70;99.90;;;;;;5107139;28;20863;-69
2023/02/03 10:19:31;;;;;;;1999.90;999.90;;;8.80;99.90;;;;;;5103959;28;20673;-71
2023/02/03 10:22:01;;;;;;;1999.90;999.90;;;8.80;99.90;;;;;;5107597;28;20461;-69
2023/02/03 10:24:38;;;;;;;1999.90;999.90;;;8.90;99.90;;;;;;5106736;28;20503;-69
2023/02/03 10:27:04;;;;;;;1999.90;999.90;;;8.90;99.90;;;;;;5107952;28;20453;-69
2023/02/03 10:29:37;;;;;;;1999.90;999.90;;;8.90;99.90;;;;;;5107253;28;20464;-69
2023/02/03 10:32:08;;;;;;;1999.90;999.90;;;8.80;99.90;;;;;;5096476;28;20947;-70
2023/02/03 10:34:37;;;;;;;1999.90;999.90;;;8.70;99.90;;;;;;5103425;28;20441;-70
2023/02/03 10:37:12;;;;;;;1999.90;999.90;;;8.70;99.90;;;;;;5108482;28;20532;-69
2023/02/03 10:39:44;;;;;;;1999.90;999.90;;;8.70;99.90;;;;;;5107339;28;20448;-69
2023/02/03 10:42:13;;;;;;;1999.90;999.90;;;8.80;99.90;;;;;;5108340;28;20456;-69
2023/02/03 10:44:43;;;;;;;1999.90;999.90;;;8.70;99.90;;;;;;5107507;28;20448;-71
2023/02/03 10:47:20;;;;;;;1999.90;999.90;;;8.70;99.90;;;;;;5107847;28;20457;-69
2023/02/03 10:49:49;;;;;;;1999.90;999.90;;;8.80;99.90;;;;;;5107796;28;20441;-70
2023/02/03 10:52:26;;;;;;;1999.90;999.90;;;8.90;99.90;;;;;;5107523;28;20450;-70
2023/02/03 10:54:53;;;;;;;1999.90;999.90;;;9.20;99.90;;;;;;5106705;28;20444;-71
2023/02/03 10:57:20;;;;;;;1999.90;999.90;;;9.30;99.90;;;;;;5107926;28;20476;-69
2023/02/03 10:59:49;;;;;;;1999.90;999.90;;;9.30;99.90;;;;;;5107505;28;20445;-68
2023/02/03 11:02:24;;;;;;;1999.90;999.90;;;9.30;99.90;;;;;;5107487;28;20514;-69
2023/02/03 11:05:09;;;;;;;1999.90;999.90;;;9.20;99.90;;;;;;5108108;28;20437;-68
2023/02/03 11:07:36;;;;;;;1999.90;999.90;;;9.20;99.90;;;;;;5108322;28;20436;-68
2023/02/03 11:10:03;;;;;;;1999.90;999.90;;;9.20;99.90;;;;;;5107818;28;20441;-69
2023/02/03 11:12:30;;;;;;;1999.90;999.90;;;9.20;99.90;;;;;;5107003;28;20445;-69
2023/02/03 11:15:05;;;;;;;1999.90;999.90;;;9.20;99.90;;;;;;5107413;28;20437;-70
2023/02/03 11:17:36;;;;;;;1999.90;999.90;;;8.90;99.90;;;;;;5108764;28;20476;-70
2023/02/03 11:20:12;;;;;;;1999.90;999.90;;;8.80;99.90;;;;;;5107271;28;20460;-69
2023/02/03 11:22:42;;;;;;;1999.90;999.90;;;8.90;99.90;;;;;;5107027;28;20456;-70
2023/02/03 11:25:18;;;;;;;1999.90;999.90;;;9.00;99.90;;;;;;5110818;28;20533;-72
2023/02/03 11:27:46;;;;;;;1999.90;999.90;;;9.10;99.90;;;;;;5110566;28;20444;-68
2023/02/03 11:30:20;;;;;;;1999.90;999.90;;;9.20;99.90;;;;;;5111516;28;20470;-71
2023/02/03 11:32:48;;;;;;;1999.90;999.90;;;9.20;99.90;;;;;;5110015;28;20447;-71
2023/02/03 11:35:18;;;;;;;1999.90;999.90;;;9.20;99.90;;;;;;5111692;28;20464;-70
2023/02/03 11:37:46;;;;;;;1999.90;999.90;;;9.30;99.90;;;;;;5111182;28;20476;-70
2023/02/03 11:40:24;;;;;;;1999.90;999.90;;;9.30;99.90;;;;;;5110604;28;20440;-70
2023/02/03 11:43:04;;;;;;;1999.90;999.90;;;9.40;99.90;;;;;;5110719;28;20437;-70
2023/02/03 11:45:37;;;;;;;1999.90;999.90;;;9.40;99.90;;;;;;5110339;28;20522;-71
2023/02/03 11:48:17;;;;;;;1999.90;999.90;;;9.40;99.90;;;;;;5111462;28;20442;-70
2023/02/03 11:50:49;;;;;;;1999.90;999.90;;;9.40;99.90;;;;;;5108551;28;20452;-70
2023/02/03 11:53:32;;;;;;;1999.90;999.90;;;9.30;99.90;;;;;;5110096;28;20837;-70
2023/02/03 11:56:25;;;;;;;1999.90;999.90;;;9.40;99.90;;;;;;5110489;28;20473;-69
2023/02/03 11:59:15;;;;;;;1999.90;999.90;;;9.40;99.90;;;;;;5110565;28;20823;-69
2023/02/03 12:02:21;;;;;;;1999.90;999.90;;;9.50;99.90;;;;;;5106861;28;20453;-69
2023/02/03 12:05:13;;;;;;;1999.90;999.90;;;9.70;99.90;;;;;;5089383;28;20448;-69
2023/02/03 12:08:03;;;;;;;1999.90;999.90;;;9.80;99.90;;;;;;5110946;28;20844;-70
2023/02/03 12:10:42;;;;;;;1999.90;999.90;;;9.70;99.90;;;;;;5110747;28;20446;-68
2023/02/03 12:13:26;;;;;;;1999.90;999.90;;;9.50;99.90;;;;;;5109953;28;20453;-69
2023/02/03 12:16:17;;;;;;;1999.90;999.90;;;9.40;99.90;;;;;;5109354;28;21152;-69
2023/02/03 12:18:56;;;;;;;1999.90;999.90;;;9.30;99.90;;;;;;5104775;28;20449;-70
2023/02/03 12:21:43;;;;;;;1999.90;999.90;;;9.30;99.90;;;;;;5110417;28;20449;-70
2023/02/03 12:24:24;;;;;;;1999.90;999.90;;;9.30;99.90;;;;;;5106809;28;20991;-69
2023/02/03 12:26:59;;;;;;;1999.90;999.90;;;9.30;99.90;;;;;;5107292;28;20460;-69